Terminal Aerodrome Forecast
Issued by NWS

Home | Current Version | Previous Version | Text Only | Print | Product List | Glossary On
Versions: 1 2 3 4 5 6 7 8 9 10 11 12 13
874
FTUS42 KTBW 230527
TAFRSW
TAF
KRSW 230527Z 2306/2406 VRB03KT P6SM VCSH BKN120
     FM231000 VRB03KT P6SM BKN015
      TEMPO 2310/2314 4SM BR SCT015
     FM231400 33008KT P6SM SCT020 BKN120
     FM231800 36008KT P6SM SCT035 SCT120=

USA.gov is the U.S. government's official web portal to all federal, state and local government web resources and services.